sensor_id;sensor_type;location;lat;lon;timestamp;temperature;humidity
10883;DHT22;5494;51.796;10.952;2023-06-14T00:00:34;14.40;99.90
10883;DHT22;5494;51.796;10.952;2023-06-14T00:03:02;14.40;99.90
10883;DHT22;5494;51.796;10.952;2023-06-14T00:05:31;14.40;99.90
10883;DHT22;5494;51.796;10.952;2023-06-14T00:08:05;14.30;99.90
10883;DHT22;5494;51.796;10.952;2023-06-14T00:10:36;14.30;99.90
10883;DHT22;5494;51.796;10.952;2023-06-14T00:13:05;14.20;99.90
10883;DHT22;5494;51.796;10.952;2023-06-14T00:15:34;14.20;99.90
10883;DHT22;5494;51.796;10.952;2023-06-14T00:18:03;14.20;99.90
10883;DHT22;5494;51.796;10.952;2023-06-14T00:20:34;14.20;99.90
10883;DHT22;5494;51.796;10.952;2023-06-14T00:23:02;14.20;99.90
10883;DHT22;5494;51.796;10.952;2023-06-14T00:25:30;14.00;99.90
10883;DHT22;5494;51.796;10.952;2023-06-14T00:28:00;14.00;99.90
10883;DHT22;5494;51.796;10.952;2023-06-14T00:30:28;14.00;99.90
10883;DHT22;5494;51.796;10.952;2023-06-14T00:32:58;13.90;99.90
10883;DHT22;5494;51.796;10.952;2023-06-14T00:35:26;13.80;99.90
10883;DHT22;5494;51.796;10.952;2023-06-14T00:37:56;13.70;99.90
10883;DHT22;5494;51.796;10.952;2023-06-14T00:40:26;13.70;99.90
10883;DHT22;5494;51.796;10.952;2023-06-14T00:42:54;13.60;99.90
10883;DHT22;5494;51.796;10.952;2023-06-14T00:45:23;13.60;99.90
10883;DHT22;5494;51.796;10.952;2023-06-14T00:47:52;13.60;99.90
10883;DHT22;5494;51.796;10.952;2023-06-14T00:50:22;13.60;99.90
10883;DHT22;5494;51.796;10.952;2023-06-14T00:52:51;13.50;99.90
10883;DHT22;5494;51.796;10.952;2023-06-14T00:55:19;13.50;99.90
10883;DHT22;5494;51.796;10.952;2023-06-14T00:57:48;13.50;99.90
10883;DHT22;5494;51.796;10.952;2023-06-14T01:00:16;13.50;99.90
10883;DHT22;5494;51.796;10.952;2023-06-14T01:02:47;13.40;99.90
10883;DHT22;5494;51.796;10.952;2023-06-14T01:05:16;13.40;99.90
10883;DHT22;5494;51.796;10.952;2023-06-14T01:08:00;13.30;99.90
10883;DHT22;5494;51.796;10.952;2023-06-14T01:10:43;13.20;99.90
10883;DHT22;5494;51.796;10.952;2023-06-14T01:13:23;13.30;99.90
10883;DHT22;5494;51.796;10.952;2023-06-14T01:15:56;13.20;99.90
10883;DHT22;5494;51.796;10.952;2023-06-14T01:18:28;13.10;99.90
10883;DHT22;5494;51.796;10.952;2023-06-14T01:20:56;13.10;99.90
10883;DHT22;5494;51.796;10.952;2023-06-14T01:23:26;13.10;99.90
10883;DHT22;5494;51.796;10.952;2023-06-14T01:25:59;13.00;99.90
10883;DHT22;5494;51.796;10.952;2023-06-14T01:28:31;13.00;99.90
10883;DHT22;5494;51.796;10.952;2023-06-14T01:31:02;13.00;99.90
10883;DHT22;5494;51.796;10.952;2023-06-14T01:33:33;13.00;99.90
10883;DHT22;5494;51.796;10.952;2023-06-14T01:36:05;12.90;99.90
10883;DHT22;5494;51.796;10.952;2023-06-14T01:38:37;12.90;99.90
10883;DHT22;5494;51.796;10.952;2023-06-14T01:41:06;12.90;99.90
10883;DHT22;5494;51.796;10.952;2023-06-14T01:43:34;12.90;99.90
10883;DHT22;5494;51.796;10.952;2023-06-14T01:46:05;12.90;99.90
10883;DHT22;5494;51.796;10.952;2023-06-14T01:48:36;12.70;99.90
10883;DHT22;5494;51.796;10.952;2023-06-14T01:51:04;12.70;99.90
10883;DHT22;5494;51.796;10.952;2023-06-14T01:53:32;12.60;99.90
10883;DHT22;5494;51.796;10.952;2023-06-14T01:56:01;12.50;99.90
10883;DHT22;5494;51.796;10.952;2023-06-14T01:58:30;12.50;99.90
10883;DHT22;5494;51.796;10.952;2023-06-14T02:00:59;12.40;99.90
10883;DHT22;5494;51.796;10.952;2023-06-14T02:03:28;12.50;99.90
10883;DHT22;5494;51.796;10.952;2023-06-14T02:05:56;12.40;99.90
10883;DHT22;5494;51.796;10.952;2023-06-14T02:08:25;12.40;99.90
10883;DHT22;5494;51.796;10.952;2023-06-14T02:10:53;12.40;99.90
10883;DHT22;5494;51.796;10.952;2023-06-14T02:13:22;12.40;99.90
10883;DHT22;5494;51.796;10.952;2023-06-14T02:15:50;12.30;99.90
10883;DHT22;5494;51.796;10.952;2023-06-14T02:18:22;12.30;99.90
10883;DHT22;5494;51.796;10.952;2023-06-14T02:20:50;12.30;99.90
10883;DHT22;5494;51.796;10.952;2023-06-14T02:23:18;12.30;99.90
10883;DHT22;5494;51.796;10.952;2023-06-14T02:25:47;12.30;99.90
10883;DHT22;5494;51.796;10.952;2023-06-14T02:28:18;12.20;99.90
10883;DHT22;5494;51.796;10.952;2023-06-14T02:30:48;12.30;99.90
10883;DHT22;5494;51.796;10.952;2023-06-14T02:33:16;12.20;99.90
10883;DHT22;5494;51.796;10.952;2023-06-14T02:35:44;12.20;99.90
10883;DHT22;5494;51.796;10.952;2023-06-14T02:38:13;12.10;99.90
10883;DHT22;5494;51.796;10.952;2023-06-14T02:40:41;12.10;99.90
10883;DHT22;5494;51.796;10.952;2023-06-14T02:43:09;12.10;99.90
10883;DHT22;5494;51.796;10.952;2023-06-14T02:45:38;12.10;99.90
10883;DHT22;5494;51.796;10.952;2023-06-14T02:48:08;12.20;99.90
10883;DHT22;5494;51.796;10.952;2023-06-14T02:50:39;12.10;99.90
10883;DHT22;5494;51.796;10.952;2023-06-14T02:53:08;12.10;99.90
10883;DHT22;5494;51.796;10.952;2023-06-14T02:55:36;12.10;99.90
10883;DHT22;5494;51.796;10.952;2023-06-14T02:58:07;12.10;99.90
10883;DHT22;5494;51.796;10.952;2023-06-14T03:00:35;12.10;99.90
10883;DHT22;5494;51.796;10.952;2023-06-14T03:03:05;12.10;99.90
10883;DHT22;5494;51.796;10.952;2023-06-14T03:05:47;12.10;99.90
10883;DHT22;5494;51.796;10.952;2023-06-14T03:08:19;12.10;99.90
10883;DHT22;5494;51.796;10.952;2023-06-14T03:10:50;12.10;99.90
10883;DHT22;5494;51.796;10.952;2023-06-14T03:13:19;12.20;99.90
10883;DHT22;5494;51.796;10.952;2023-06-14T03:15:48;12.10;99.90
10883;DHT22;5494;51.796;10.952;2023-06-14T03:18:18;12.10;99.90
10883;DHT22;5494;51.796;10.952;2023-06-14T03:20:55;12.20;99.90
10883;DHT22;5494;51.796;10.952;2023-06-14T03:23:26;12.40;99.90
10883;DHT22;5494;51.796;10.952;2023-06-14T03:25:54;12.50;99.90
10883;DHT22;5494;51.796;10.952;2023-06-14T03:28:22;12.60;99.90
10883;DHT22;5494;51.796;10.952;2023-06-14T03:30:51;12.70;99.90
10883;DHT22;5494;51.796;10.952;2023-06-14T03:33:20;12.90;99.90
10883;DHT22;5494;51.796;10.952;2023-06-14T03:35:48;13.00;99.90
10883;DHT22;5494;51.796;10.952;2023-06-14T03:38:18;13.20;99.90
10883;DHT22;5494;51.796;10.952;2023-06-14T03:40:46;13.30;99.90
10883;DHT22;5494;51.796;10.952;2023-06-14T03:43:15;13.50;99.90
10883;DHT22;5494;51.796;10.952;2023-06-14T03:45:43;13.60;99.90
10883;DHT22;5494;51.796;10.952;2023-06-14T03:48:11;13.80;99.90
10883;DHT22;5494;51.796;10.952;2023-06-14T03:50:39;13.90;99.90
10883;DHT22;5494;51.796;10.952;2023-06-14T03:53:09;14.10;99.90
10883;DHT22;5494;51.796;10.952;2023-06-14T03:55:42;14.30;99.90
10883;DHT22;5494;51.796;10.952;2023-06-14T03:58:13;14.40;99.90
10883;DHT22;5494;51.796;10.952;2023-06-14T04:00:41;14.70;99.90
10883;DHT22;5494;51.796;10.952;2023-06-14T04:03:09;14.80;99.90
10883;DHT22;5494;51.796;10.952;2023-06-14T04:05:40;14.80;99.90
10883;DHT22;5494;51.796;10.952;2023-06-14T04:08:09;15.00;99.90
10883;DHT22;5494;51.796;10.952;2023-06-14T04:10:37;15.10;99.90
10883;DHT22;5494;51.796;10.952;2023-06-14T04:13:06;15.20;99.90
10883;DHT22;5494;51.796;10.952;2023-06-14T04:15:34;15.20;99.90
10883;DHT22;5494;51.796;10.952;2023-06-14T04:18:03;15.10;99.90
10883;DHT22;5494;51.796;10.952;2023-06-14T04:20:32;15.00;99.90
10883;DHT22;5494;51.796;10.952;2023-06-14T04:23:11;14.90;99.90
10883;DHT22;5494;51.796;10.952;2023-06-14T04:25:41;14.80;99.90
10883;DHT22;5494;51.796;10.952;2023-06-14T04:28:13;14.90;99.90
10883;DHT22;5494;51.796;10.952;2023-06-14T04:30:43;15.60;99.90
10883;DHT22;5494;51.796;10.952;2023-06-14T04:33:13;16.70;99.90
10883;DHT22;5494;51.796;10.952;2023-06-14T04:35:42;17.80;99.90
10883;DHT22;5494;51.796;10.952;2023-06-14T04:38:14;18.70;99.90
10883;DHT22;5494;51.796;10.952;2023-06-14T04:40:43;19.50;99.90
10883;DHT22;5494;51.796;10.952;2023-06-14T04:43:17;20.20;99.90
10883;DHT22;5494;51.796;10.952;2023-06-14T04:45:47;20.80;99.90
10883;DHT22;5494;51.796;10.952;2023-06-14T04:48:16;20.30;99.90
10883;DHT22;5494;51.796;10.952;2023-06-14T04:50:48;19.90;99.90
10883;DHT22;5494;51.796;10.952;2023-06-14T04:53:20;19.90;99.90
10883;DHT22;5494;51.796;10.952;2023-06-14T04:55:52;19.60;99.90
10883;DHT22;5494;51.796;10.952;2023-06-14T04:58:23;19.30;99.90
10883;DHT22;5494;51.796;10.952;2023-06-14T05:00:51;19.20;99.90
10883;DHT22;5494;51.796;10.952;2023-06-14T05:03:20;20.40;99.90
10883;DHT22;5494;51.796;10.952;2023-06-14T05:05:48;18.60;99.90
10883;DHT22;5494;51.796;10.952;2023-06-14T05:08:17;19.30;99.90
10883;DHT22;5494;51.796;10.952;2023-06-14T05:10:47;20.10;99.90
10883;DHT22;5494;51.796;10.952;2023-06-14T05:13:16;19.90;99.90
10883;DHT22;5494;51.796;10.952;2023-06-14T05:15:47;20.10;99.90
10883;DHT22;5494;51.796;10.952;2023-06-14T05:18:15;20.30;99.90
10883;DHT22;5494;51.796;10.952;2023-06-14T05:20:44;20.70;99.90
10883;DHT22;5494;51.796;10.952;2023-06-14T05:23:12;21.40;99.90
10883;DHT22;5494;51.796;10.952;2023-06-14T05:25:42;21.90;99.10
10883;DHT22;5494;51.796;10.952;2023-06-14T05:28:12;22.60;97.20
10883;DHT22;5494;51.796;10.952;2023-06-14T05:30:40;23.10;95.40
10883;DHT22;5494;51.796;10.952;2023-06-14T05:33:10;23.30;95.00
10883;DHT22;5494;51.796;10.952;2023-06-14T05:35:38;23.50;93.90
10883;DHT22;5494;51.796;10.952;2023-06-14T05:38:06;23.90;92.80
10883;DHT22;5494;51.796;10.952;2023-06-14T05:40:34;23.10;93.50
10883;DHT22;5494;51.796;10.952;2023-06-14T05:43:02;23.00;93.70
10883;DHT22;5494;51.796;10.952;2023-06-14T05:45:31;23.90;92.40
10883;DHT22;5494;51.796;10.952;2023-06-14T05:47:59;24.60;90.40
10883;DHT22;5494;51.796;10.952;2023-06-14T05:50:28;24.60;88.50
10883;DHT22;5494;51.796;10.952;2023-06-14T05:52:56;24.90;89.20
10883;DHT22;5494;51.796;10.952;2023-06-14T05:55:24;25.00;85.00
10883;DHT22;5494;51.796;10.952;2023-06-14T05:57:53;24.50;86.50
10883;DHT22;5494;51.796;10.952;2023-06-14T06:00:21;25.10;84.90
10883;DHT22;5494;51.796;10.952;2023-06-14T06:02:49;25.30;82.90
10883;DHT22;5494;51.796;10.952;2023-06-14T06:05:17;25.70;79.80
10883;DHT22;5494;51.796;10.952;2023-06-14T06:07:47;26.60;77.00
10883;DHT22;5494;51.796;10.952;2023-06-14T06:10:16;27.70;68.90
10883;DHT22;5494;51.796;10.952;2023-06-14T06:12:44;28.40;62.80
10883;DHT22;5494;51.796;10.952;2023-06-14T06:15:14;28.90;58.90
10883;DHT22;5494;51.796;10.952;2023-06-14T06:17:43;28.70;56.60
10883;DHT22;5494;51.796;10.952;2023-06-14T06:20:21;28.70;55.70
10883;DHT22;5494;51.796;10.952;2023-06-14T06:22:59;28.30;54.90
10883;DHT22;5494;51.796;10.952;2023-06-14T06:25:27;28.40;54.70
10883;DHT22;5494;51.796;10.952;2023-06-14T06:27:58;29.30;50.90
10883;DHT22;5494;51.796;10.952;2023-06-14T06:30:26;29.40;51.00
10883;DHT22;5494;51.796;10.952;2023-06-14T06:32:54;29.30;48.90
10883;DHT22;5494;51.796;10.952;2023-06-14T06:35:23;29.70;47.30
10883;DHT22;5494;51.796;10.952;2023-06-14T06:37:51;30.00;46.90
10883;DHT22;5494;51.796;10.952;2023-06-14T06:40:21;29.80;47.20
10883;DHT22;5494;51.796;10.952;2023-06-14T06:42:49;27.90;49.40
10883;DHT22;5494;51.796;10.952;2023-06-14T06:45:19;25.50;57.70
10883;DHT22;5494;51.796;10.952;2023-06-14T06:47:50;23.90;65.40
10883;DHT22;5494;51.796;10.952;2023-06-14T06:50:19;23.70;69.20
10883;DHT22;5494;51.796;10.952;2023-06-14T06:52:49;23.90;71.50
10883;DHT22;5494;51.796;10.952;2023-06-14T06:55:17;24.80;69.50
10883;DHT22;5494;51.796;10.952;2023-06-14T06:57:47;25.40;66.10
10883;DHT22;5494;51.796;10.952;2023-06-14T07:00:17;25.30;67.60
10883;DHT22;5494;51.796;10.952;2023-06-14T07:02:46;26.00;65.70
10883;DHT22;5494;51.796;10.952;2023-06-14T07:05:14;27.00;60.60
10883;DHT22;5494;51.796;10.952;2023-06-14T07:07:43;27.90;58.20
10883;DHT22;5494;51.796;10.952;2023-06-14T07:10:11;27.30;55.00
10883;DHT22;5494;51.796;10.952;2023-06-14T07:12:39;27.90;55.50
10883;DHT22;5494;51.796;10.952;2023-06-14T07:15:09;27.00;57.10
10883;DHT22;5494;51.796;10.952;2023-06-14T07:17:38;25.00;63.20
10883;DHT22;5494;51.796;10.952;2023-06-14T07:20:08;23.10;72.70
10883;DHT22;5494;51.796;10.952;2023-06-14T07:22:39;22.30;81.00
10883;DHT22;5494;51.796;10.952;2023-06-14T07:25:09;22.30;81.80
10883;DHT22;5494;51.796;10.952;2023-06-14T07:27:40;22.60;80.80
10883;DHT22;5494;51.796;10.952;2023-06-14T07:30:11;23.10;79.80
10883;DHT22;5494;51.796;10.952;2023-06-14T07:32:39;22.90;82.60
10883;DHT22;5494;51.796;10.952;2023-06-14T07:35:13;22.60;82.00
10883;DHT22;5494;51.796;10.952;2023-06-14T07:37:41;22.10;83.40
10883;DHT22;5494;51.796;10.952;2023-06-14T07:40:10;21.80;89.40
10883;DHT22;5494;51.796;10.952;2023-06-14T07:42:39;21.60;90.00
10883;DHT22;5494;51.796;10.952;2023-06-14T07:45:11;21.20;91.00
10883;DHT22;5494;51.796;10.952;2023-06-14T07:47:42;21.30;90.30
10883;DHT22;5494;51.796;10.952;2023-06-14T07:50:11;21.30;90.10
10883;DHT22;5494;51.796;10.952;2023-06-14T07:52:39;21.90;90.60
10883;DHT22;5494;51.796;10.952;2023-06-14T07:55:07;22.00;90.00
10883;DHT22;5494;51.796;10.952;2023-06-14T07:57:36;21.80;90.10
10883;DHT22;5494;51.796;10.952;2023-06-14T08:00:05;21.80;90.20
10883;DHT22;5494;51.796;10.952;2023-06-14T08:02:43;21.30;90.90
10883;DHT22;5494;51.796;10.952;2023-06-14T08:05:12;21.20;92.60
10883;DHT22;5494;51.796;10.952;2023-06-14T08:07:41;21.80;90.10
10883;DHT22;5494;51.796;10.952;2023-06-14T08:10:09;22.50;87.10
10883;DHT22;5494;51.796;10.952;2023-06-14T08:12:37;22.70;86.60
10883;DHT22;5494;51.796;10.952;2023-06-14T08:15:07;23.10;85.30
10883;DHT22;5494;51.796;10.952;2023-06-14T08:17:42;22.70;86.40
10883;DHT22;5494;51.796;10.952;2023-06-14T08:20:11;22.90;85.60
10883;DHT22;5494;51.796;10.952;2023-06-14T08:22:40;22.90;84.60
10883;DHT22;5494;51.796;10.952;2023-06-14T08:25:09;22.80;85.00
10883;DHT22;5494;51.796;10.952;2023-06-14T08:27:39;22.40;86.60
10883;DHT22;5494;51.796;10.952;2023-06-14T08:30:08;22.40;87.20
10883;DHT22;5494;51.796;10.952;2023-06-14T08:32:37;21.50;88.20
10883;DHT22;5494;51.796;10.952;2023-06-14T08:35:07;20.90;90.80
10883;DHT22;5494;51.796;10.952;2023-06-14T08:37:38;20.60;91.80
10883;DHT22;5494;51.796;10.952;2023-06-14T08:40:17;19.90;94.30
10883;DHT22;5494;51.796;10.952;2023-06-14T08:42:50;19.80;94.40
10883;DHT22;5494;51.796;10.952;2023-06-14T08:45:20;19.80;95.10
10883;DHT22;5494;51.796;10.952;2023-06-14T08:47:53;20.20;94.80
10883;DHT22;5494;51.796;10.952;2023-06-14T08:50:28;20.50;93.60
10883;DHT22;5494;51.796;10.952;2023-06-14T08:53:00;20.80;93.70
10883;DHT22;5494;51.796;10.952;2023-06-14T08:55:30;20.90;93.30
10883;DHT22;5494;51.796;10.952;2023-06-14T08:58:03;21.10;92.70
10883;DHT22;5494;51.796;10.952;2023-06-14T09:00:32;21.30;92.40
10883;DHT22;5494;51.796;10.952;2023-06-14T09:03:01;20.90;93.10
10883;DHT22;5494;51.796;10.952;2023-06-14T09:05:32;20.70;93.70
10883;DHT22;5494;51.796;10.952;2023-06-14T09:08:00;21.10;94.20
10883;DHT22;5494;51.796;10.952;2023-06-14T09:10:32;21.30;92.40
10883;DHT22;5494;51.796;10.952;2023-06-14T09:13:02;21.10;91.90
10883;DHT22;5494;51.796;10.952;2023-06-14T09:15:30;20.90;92.30
10883;DHT22;5494;51.796;10.952;2023-06-14T09:18:01;20.90;92.80
10883;DHT22;5494;51.796;10.952;2023-06-14T09:20:32;20.40;93.50
10883;DHT22;5494;51.796;10.952;2023-06-14T09:23:00;20.60;94.30
10883;DHT22;5494;51.796;10.952;2023-06-14T09:25:32;21.20;91.20
10883;DHT22;5494;51.796;10.952;2023-06-14T09:28:09;20.50;92.10
10883;DHT22;5494;51.796;10.952;2023-06-14T09:30:37;21.00;92.50
10883;DHT22;5494;51.796;10.952;2023-06-14T09:33:06;21.60;90.10
10883;DHT22;5494;51.796;10.952;2023-06-14T09:35:39;23.80;90.50
10883;DHT22;5494;51.796;10.952;2023-06-14T09:38:07;22.10;89.20
10883;DHT22;5494;51.796;10.952;2023-06-14T09:40:35;21.30;90.80
10883;DHT22;5494;51.796;10.952;2023-06-14T09:43:06;21.00;91.70
10883;DHT22;5494;51.796;10.952;2023-06-14T09:45:35;21.10;90.40
10883;DHT22;5494;51.796;10.952;2023-06-14T09:48:04;21.20;90.20
10883;DHT22;5494;51.796;10.952;2023-06-14T09:50:34;20.80;91.40
10883;DHT22;5494;51.796;10.952;2023-06-14T09:53:07;20.80;92.80
10883;DHT22;5494;51.796;10.952;2023-06-14T09:55:40;20.60;91.60
10883;DHT22;5494;51.796;10.952;2023-06-14T09:58:10;20.30;92.90
10883;DHT22;5494;51.796;10.952;2023-06-14T10:00:40;20.50;92.10
10883;DHT22;5494;51.796;10.952;2023-06-14T10:03:13;20.80;91.50
10883;DHT22;5494;51.796;10.952;2023-06-14T10:05:45;21.10;90.80
10883;DHT22;5494;51.796;10.952;2023-06-14T10:08:19;21.60;90.70
10883;DHT22;5494;51.796;10.952;2023-06-14T10:10:53;22.10;88.00
10883;DHT22;5494;51.796;10.952;2023-06-14T10:13:23;22.50;87.80
10883;DHT22;5494;51.796;10.952;2023-06-14T10:16:00;23.10;85.20
10883;DHT22;5494;51.796;10.952;2023-06-14T10:18:42;22.50;84.60
10883;DHT22;5494;51.796;10.952;2023-06-14T10:21:21;21.70;86.60
10883;DHT22;5494;51.796;10.952;2023-06-14T10:24:01;21.20;89.70
10883;DHT22;5494;51.796;10.952;2023-06-14T10:26:34;21.00;90.10
10883;DHT22;5494;51.796;10.952;2023-06-14T10:29:08;20.80;91.40
10883;DHT22;5494;51.796;10.952;2023-06-14T10:31:41;21.10;91.70
10883;DHT22;5494;51.796;10.952;2023-06-14T10:34:10;21.40;91.70
10883;DHT22;5494;51.796;10.952;2023-06-14T10:36:42;21.50;90.60
10883;DHT22;5494;51.796;10.952;2023-06-14T10:39:16;21.10;91.20
10883;DHT22;5494;51.796;10.952;2023-06-14T10:41:55;21.20;91.60
10883;DHT22;5494;51.796;10.952;2023-06-14T10:44:34;21.50;91.00
10883;DHT22;5494;51.796;10.952;2023-06-14T10:47:09;21.60;90.70
10883;DHT22;5494;51.796;10.952;2023-06-14T10:49:39;21.50;90.70
10883;DHT22;5494;51.796;10.952;2023-06-14T10:52:11;21.60;91.60
10883;DHT22;5494;51.796;10.952;2023-06-14T10:55:03;21.50;91.30
10883;DHT22;5494;51.796;10.952;2023-06-14T10:57:40;21.00;92.10
10883;DHT22;5494;51.796;10.952;2023-06-14T11:00:19;21.90;93.00
10883;DHT22;5494;51.796;10.952;2023-06-14T11:03:31;21.00;92.40
10883;DHT22;5494;51.796;10.952;2023-06-14T11:06:14;20.90;92.40
10883;DHT22;5494;51.796;10.952;2023-06-14T11:09:10;21.00;93.00
10883;DHT22;5494;51.796;10.952;2023-06-14T11:11:54;21.10;93.90
10883;DHT22;5494;51.796;10.952;2023-06-14T11:14:24;21.20;93.10
10883;DHT22;5494;51.796;10.952;2023-06-14T11:16:52;21.00;92.40
10883;DHT22;5494;51.796;10.952;2023-06-14T11:19:21;20.70;93.30
10883;DHT22;5494;51.796;10.952;2023-06-14T11:21:49;20.60;93.90
10883;DHT22;5494;51.796;10.952;2023-06-14T11:24:17;20.60;94.10
10883;DHT22;5494;51.796;10.952;2023-06-14T11:26:47;20.50;94.90
10883;DHT22;5494;51.796;10.952;2023-06-14T11:29:17;20.60;95.00
10883;DHT22;5494;51.796;10.952;2023-06-14T11:31:48;20.80;94.60
10883;DHT22;5494;51.796;10.952;2023-06-14T11:34:17;20.70;93.70
10883;DHT22;5494;51.796;10.952;2023-06-14T11:36:48;20.70;94.60
10883;DHT22;5494;51.796;10.952;2023-06-14T11:39:17;20.50;95.10
10883;DHT22;5494;51.796;10.952;2023-06-14T11:41:45;20.40;95.40
10883;DHT22;5494;51.796;10.952;2023-06-14T11:44:13;20.40;95.90
10883;DHT22;5494;51.796;10.952;2023-06-14T11:46:42;20.50;97.20
10883;DHT22;5494;51.796;10.952;2023-06-14T11:49:10;20.60;96.20
10883;DHT22;5494;51.796;10.952;2023-06-14T11:51:38;20.70;96.00
10883;DHT22;5494;51.796;10.952;2023-06-14T11:54:07;20.90;94.60
10883;DHT22;5494;51.796;10.952;2023-06-14T11:56:36;21.20;95.90
10883;DHT22;5494;51.796;10.952;2023-06-14T11:59:05;21.20;94.00
10883;DHT22;5494;51.796;10.952;2023-06-14T12:01:36;21.30;93.90
10883;DHT22;5494;51.796;10.952;2023-06-14T12:04:08;21.30;94.30
10883;DHT22;5494;51.796;10.952;2023-06-14T12:06:36;21.20;93.40
10883;DHT22;5494;51.796;10.952;2023-06-14T12:09:07;21.10;94.30
10883;DHT22;5494;51.796;10.952;2023-06-14T12:11:40;21.30;93.80
10883;DHT22;5494;51.796;10.952;2023-06-14T12:14:09;21.20;93.60
10883;DHT22;5494;51.796;10.952;2023-06-14T12:16:39;21.10;94.30
10883;DHT22;5494;51.796;10.952;2023-06-14T12:19:12;21.10;94.70
10883;DHT22;5494;51.796;10.952;2023-06-14T12:21:42;21.10;94.70
10883;DHT22;5494;51.796;10.952;2023-06-14T12:24:12;21.10;94.70
10883;DHT22;5494;51.796;10.952;2023-06-14T12:26:41;21.20;95.10
10883;DHT22;5494;51.796;10.952;2023-06-14T12:29:09;21.70;94.30
10883;DHT22;5494;51.796;10.952;2023-06-14T12:31:39;21.60;93.70
10883;DHT22;5494;51.796;10.952;2023-06-14T12:34:10;21.30;94.80
10883;DHT22;5494;51.796;10.952;2023-06-14T12:36:38;21.30;94.40
10883;DHT22;5494;51.796;10.952;2023-06-14T12:39:12;21.30;95.00
10883;DHT22;5494;51.796;10.952;2023-06-14T12:41:40;21.30;94.00
10883;DHT22;5494;51.796;10.952;2023-06-14T12:44:09;21.10;93.50
10883;DHT22;5494;51.796;10.952;2023-06-14T12:46:38;20.80;93.40
10883;DHT22;5494;51.796;10.952;2023-06-14T12:49:10;20.70;94.50
10883;DHT22;5494;51.796;10.952;2023-06-14T12:51:39;20.80;94.70
10883;DHT22;5494;51.796;10.952;2023-06-14T12:54:07;20.80;94.90
10883;DHT22;5494;51.796;10.952;2023-06-14T12:56:36;20.80;95.20
10883;DHT22;5494;51.796;10.952;2023-06-14T12:59:04;20.90;95.60
10883;DHT22;5494;51.796;10.952;2023-06-14T13:01:33;20.70;95.60
10883;DHT22;5494;51.796;10.952;2023-06-14T13:04:01;20.60;96.10
10883;DHT22;5494;51.796;10.952;2023-06-14T13:06:31;20.60;96.90
10883;DHT22;5494;51.796;10.952;2023-06-14T13:08:59;20.60;96.10
10883;DHT22;5494;51.796;10.952;2023-06-14T13:11:28;20.60;96.20
10883;DHT22;5494;51.796;10.952;2023-06-14T13:13:57;20.60;96.20
10883;DHT22;5494;51.796;10.952;2023-06-14T13:16:27;20.60;96.60
10883;DHT22;5494;51.796;10.952;2023-06-14T13:18:56;20.70;97.00
10883;DHT22;5494;51.796;10.952;2023-06-14T13:21:24;20.80;96.60
10883;DHT22;5494;51.796;10.952;2023-06-14T13:23:53;20.60;96.80
10883;DHT22;5494;51.796;10.952;2023-06-14T13:26:22;20.50;97.40
10883;DHT22;5494;51.796;10.952;2023-06-14T13:28:50;20.70;96.90
10883;DHT22;5494;51.796;10.952;2023-06-14T13:31:19;20.80;97.10
10883;DHT22;5494;51.796;10.952;2023-06-14T13:33:47;20.90;96.40
10883;DHT22;5494;51.796;10.952;2023-06-14T13:36:15;21.10;96.20
10883;DHT22;5494;51.796;10.952;2023-06-14T13:38:43;21.10;96.00
10883;DHT22;5494;51.796;10.952;2023-06-14T13:41:16;21.20;95.90
10883;DHT22;5494;51.796;10.952;2023-06-14T13:43:44;21.10;95.10
10883;DHT22;5494;51.796;10.952;2023-06-14T13:46:12;21.00;95.60
10883;DHT22;5494;51.796;10.952;2023-06-14T13:48:40;20.80;96.20
10883;DHT22;5494;51.796;10.952;2023-06-14T13:51:09;20.60;96.20
10883;DHT22;5494;51.796;10.952;2023-06-14T13:53:38;20.60;96.90
10883;DHT22;5494;51.796;10.952;2023-06-14T13:56:06;20.60;96.50
10883;DHT22;5494;51.796;10.952;2023-06-14T13:58:35;20.60;96.80
10883;DHT22;5494;51.796;10.952;2023-06-14T14:01:03;20.80;96.10
10883;DHT22;5494;51.796;10.952;2023-06-14T14:03:31;20.80;95.80
10883;DHT22;5494;51.796;10.952;2023-06-14T14:06:00;20.90;95.30
10883;DHT22;5494;51.796;10.952;2023-06-14T14:08:28;21.00;95.40
10883;DHT22;5494;51.796;10.952;2023-06-14T14:10:57;21.00;95.40
10883;DHT22;5494;51.796;10.952;2023-06-14T14:13:25;21.10;95.90
10883;DHT22;5494;51.796;10.952;2023-06-14T14:15:55;21.10;95.10
10883;DHT22;5494;51.796;10.952;2023-06-14T14:18:23;21.10;95.00
10883;DHT22;5494;51.796;10.952;2023-06-14T14:20:51;21.20;95.30
10883;DHT22;5494;51.796;10.952;2023-06-14T14:23:19;21.10;95.10
10883;DHT22;5494;51.796;10.952;2023-06-14T14:25:47;21.10;95.30
10883;DHT22;5494;51.796;10.952;2023-06-14T14:28:15;21.20;96.10
10883;DHT22;5494;51.796;10.952;2023-06-14T14:30:46;21.40;94.90
10883;DHT22;5494;51.796;10.952;2023-06-14T14:33:16;21.60;94.70
10883;DHT22;5494;51.796;10.952;2023-06-14T14:35:44;21.80;94.80
10883;DHT22;5494;51.796;10.952;2023-06-14T14:38:13;21.70;94.50
10883;DHT22;5494;51.796;10.952;2023-06-14T14:40:43;21.50;94.00
10883;DHT22;5494;51.796;10.952;2023-06-14T14:43:11;21.50;95.00
10883;DHT22;5494;51.796;10.952;2023-06-14T14:45:40;21.50;94.50
10883;DHT22;5494;51.796;10.952;2023-06-14T14:48:08;21.30;94.30
10883;DHT22;5494;51.796;10.952;2023-06-14T14:50:38;21.10;94.50
10883;DHT22;5494;51.796;10.952;2023-06-14T14:53:06;21.00;95.40
10883;DHT22;5494;51.796;10.952;2023-06-14T14:55:34;21.00;95.00
10883;DHT22;5494;51.796;10.952;2023-06-14T14:58:04;20.90;95.00
10883;DHT22;5494;51.796;10.952;2023-06-14T15:00:33;20.80;95.10
10883;DHT22;5494;51.796;10.952;2023-06-14T15:03:01;20.80;95.20
10883;DHT22;5494;51.796;10.952;2023-06-14T15:05:29;21.00;94.20
10883;DHT22;5494;51.796;10.952;2023-06-14T15:07:59;21.30;94.10
10883;DHT22;5494;51.796;10.952;2023-06-14T15:10:27;21.60;93.30
10883;DHT22;5494;51.796;10.952;2023-06-14T15:12:55;21.80;93.30
10883;DHT22;5494;51.796;10.952;2023-06-14T15:15:23;22.00;93.30
10883;DHT22;5494;51.796;10.952;2023-06-14T15:17:51;22.00;93.30
10883;DHT22;5494;51.796;10.952;2023-06-14T15:20:19;22.00;93.20
10883;DHT22;5494;51.796;10.952;2023-06-14T15:22:48;22.20;92.60
10883;DHT22;5494;51.796;10.952;2023-06-14T15:25:18;22.20;91.80
10883;DHT22;5494;51.796;10.952;2023-06-14T15:27:47;22.30;92.20
10883;DHT22;5494;51.796;10.952;2023-06-14T15:30:15;22.10;92.90
10883;DHT22;5494;51.796;10.952;2023-06-14T15:32:44;21.90;92.80
10883;DHT22;5494;51.796;10.952;2023-06-14T15:35:12;21.80;93.90
10883;DHT22;5494;51.796;10.952;2023-06-14T15:37:41;21.60;94.10
10883;DHT22;5494;51.796;10.952;2023-06-14T15:40:09;21.60;94.20
10883;DHT22;5494;51.796;10.952;2023-06-14T15:42:40;21.50;94.60
10883;DHT22;5494;51.796;10.952;2023-06-14T15:45:09;21.50;94.80
10883;DHT22;5494;51.796;10.952;2023-06-14T15:47:37;21.40;95.00